• Join FlightAware (Why Join?)
  • Login
  • US Flag 
04:05AM EDT


 

Airport Tracker/Info


-or-


 

Live Flight TrackerFlight Track Log ✈ N577XW ✈ 18-Apr-2013 ✈ KTUL - KRDU

Flight Track Log - Related Links

Times and Time Zones

All times are in EDT time to prevent confusion due to time zone crossing. See the N577XW flight status page for this flight to view local times or setup timezone preferences in your user account.

Time Position Orientation Groundspeed Altitude Reporting Facility
EDT Latitude Longitude Course Direction KTS MPH feet Rate Location/Type
09:45AM 36.2175 -95.9019 22° Northeast 166 191 1,300  Level Kansas City Center
09:47AM 36.2717 -95.8742 22° Northeast 221 254 4,700 2,880 Climbing Kansas City Center
09:47AM 36.2742 -95.8603 77° East 241 277 5,200 1,440 Climbing Kansas City Center
09:48AM 36.2558 -95.7881 107° East 290 334 6,200 1,140 Climbing Kansas City Center
09:48AM 36.2525 -95.7728 105° East 270 311 6,400 2,340 Climbing Kansas City Center
09:49AM 36.2169 -95.6778 115° Southeast 299 344 9,200 2,160 Climbing Kansas City Center
09:50AM 36.1886 -95.5775 109° East 306 352 10,800 1,920 Climbing Kansas City Center
09:51AM 36.1561 -95.4731 111° Southeast 318 366 13,100 2,460 Climbing Kansas City Center
09:52AM 36.1053 -95.3622 120° Southeast 308 354 15,800 1,920 Climbing Kansas City Center
09:53AM 36.0658 -95.2708 118° Southeast 305 351 17,100 960 Climbing Kansas City Center
09:54AM 36.0214 -95.1667 118° Southeast 332 382 17,800 900 Climbing Kansas City Center
09:54AM 36.0028 -95.1242 118° Southeast 322 371 18,500 1,620 Climbing Memphis Center
09:55AM 35.9567 -95.0214 119° Southeast 334 384 20,200 1,740 Climbing Memphis Center
09:56AM 35.9186 -94.9269 116° Southeast 334 384 22,000 1,740 Climbing Memphis Center
09:57AM 35.8800 -94.8378 118° Southeast 316 364 23,700 1,500 Climbing Memphis Center
09:58AM 35.8394 -94.7486 119° Southeast 303 349 25,100 900 Climbing Memphis Center
09:59AM 35.7989 -94.6542 118° Southeast 303 349 25,500 420 Climbing Memphis Center
10:00AM 35.7544 -94.5497 118° Southeast 319 367 26,000 480 Climbing Memphis Center
10:01AM 35.7486 -94.4139 93° East 350 403 26,500 600 Climbing Memphis Center
10:02AM 35.7719 -94.2742 78° East 373 429 27,300 840 Climbing Memphis Center
10:03AM 35.8011 -94.1375 75° East 395 455 28,200 960 Climbing Memphis Center
10:04AM 35.8156 -93.9997 83° East 401 461 29,300 1,140 Climbing Memphis Center
10:05AM 35.8322 -93.8622 81° East 406 467 30,500 1,200 Climbing Memphis Center
10:06AM 35.8589 -93.7278 76° East 406 467 31,800 1,200 Climbing Memphis Center
10:07AM 35.8831 -93.6006 77° East 399 459 33,000 900 Climbing Memphis Center
10:08AM 35.9050 -93.4708 78° East 389 448 33,600 600 Climbing Memphis Center
10:09AM 35.9269 -93.3383 78° East 389 448 34,300 720 Climbing Memphis Center
10:10AM 35.9531 -93.2033 77° East 394 453 35,100 780 Climbing Memphis Center
10:11AM 35.9750 -93.0656 79° East 399 459 35,900 660 Climbing Memphis Center
10:12AM 35.9986 -92.9356 77° East 399 459 36,500 480 Climbing Memphis Center
10:13AM 36.0097 -92.7972 84° East 399 459 36,900 240 Climbing Memphis Center
10:14AM 36.0144 -92.6564 88° East 399 459 37,000 480 Climbing Memphis Center
10:15AM 36.0211 -92.5178 87° East 405 466 37,900 600 Climbing Memphis Center
10:16AM 36.0067 -92.3814 97° East 400 460 38,200 300 Climbing Memphis Center
10:17AM 35.9733 -92.2472 107° East 405 466 38,500 300 Climbing Memphis Center
10:18AM 35.9461 -92.1133 104° East 405 466 38,800 240 Climbing Memphis Center
10:19AM 35.9692 -91.9575 80° East 406 467 39,000 60 Climbing Memphis Center
10:20AM 35.9981 -91.8142 76° East 411 473 39,000  Level Memphis Center
10:21AM 36.0289 -91.6686 75° East 421 484 39,000  Level Memphis Center
10:22AM 36.0594 -91.5228 75° East 433 498 39,000  Level Memphis Center
10:23AM 36.0858 -91.3742 78° East 433 498 39,000  Level Memphis Center
10:24AM 36.1139 -91.2203 77° East 438 504 39,000  Level Memphis Center
10:25AM 36.1419 -91.0689 77° East 443 510 39,000  Level Memphis Center
10:26AM 36.1719 -90.9175 76° East 448 516 39,000  Level Memphis Center
10:27AM 36.1997 -90.7633 77° East 448 516 39,000  Level Memphis Center
10:28AM 36.2314 -90.6092 76° East 453 521 39,000  Level Memphis Center
10:29AM 36.2586 -90.4547 78° East 453 521 39,000  Level Memphis Center
10:30AM 36.2878 -90.3056 76° East 453 521 39,000  Level Memphis Center
10:31AM 36.3461 -90.1664 62° Northeast 453 521 39,000  Level Memphis Center
10:32AM 36.4250 -90.0422 52° Northeast 447 514 39,000  Level Memphis Center
10:33AM 36.5039 -89.9283 49° Northeast 442 509 39,000  Level Memphis Center
10:34AM 36.5681 -89.7989 58° Northeast 436 502 39,000  Level Memphis Center
10:35AM 36.5903 -89.6669 78° East 427 491 39,000  Level Memphis Center
10:36AM 36.6100 -89.5117 81° East 427 491 39,000 -900 Level Memphis Center
10:37AM 36.6297 -89.3564 81° East 439 505 37,300 -1,800 Descending Memphis Center
10:38AM 36.6472 -89.1958 82° East 458 527 35,500 -1,200 Descending Memphis Center
10:39AM 36.6644 -89.0403 82° East 458 527 35,000 -300 Descending Memphis Center
10:40AM 36.6814 -88.8875 82° East 458 527 35,000  Level Memphis Center
10:41AM 36.6983 -88.7319 82° East 458 527 35,000  Level Memphis Center
10:42AM 36.7147 -88.5761 82° East 453 521 35,000  Level Memphis Center
10:43AM 36.7333 -88.4256 81° East 448 516 35,000  Level Memphis Center
10:44AM 36.7497 -88.2697 82° East 448 516 35,000  Level Memphis Center
10:45AM 36.7675 -88.1011 82° East 448 516 35,000  Level Memphis Center
10:46AM 36.7833 -87.9450 83° East 448 516 35,000  Level Memphis Center
10:47AM 36.7989 -87.7892 83° East 448 516 35,000  Level Memphis Center
10:48AM 36.8164 -87.6358 82° East 448 516 35,000  Level Memphis Center
10:49AM 36.8281 -87.4953 84° East 448 516 35,000  Level Memphis Center
10:50AM 36.8453 -87.3417 82° East 448 516 35,000  Level Memphis Center
10:51AM 36.8600 -87.1831 83° East 448 516 35,000  Level Memphis Center
10:52AM 36.8747 -87.0269 83° East 448 516 35,000  Level Memphis Center
10:53AM 36.8908 -86.8575 83° East 448 516 35,000  Level Memphis Center
10:54AM 36.9050 -86.7014 83° East 448 516 35,000  Level Memphis Center
10:55AM 36.9192 -86.5450 83° East 448 516 35,000  Level Memphis Center
10:56AM 36.9225 -86.3917 88° East 448 516 35,000  Level Memphis Center
10:57AM 36.9072 -86.2394 97° East 442 509 35,000  Level Memphis Center
10:59AM 36.8808 -85.9875 97° East 435 501 35,000  Level Indianapolis Center
11:00AM 36.8642 -85.8358 98° East 436 502 35,000  Level Indianapolis Center
11:01AM 36.8481 -85.6839 98° East 436 502 35,000 -300 Level Indianapolis Center
11:02AM 36.8308 -85.5319 98° East 436 502 34,500 -1,320 Descending Indianapolis Center
11:03AM 36.8103 -85.3628 99° East 432 497 32,300 -1,740 Descending Indianapolis Center
11:04AM 36.7947 -85.2181 98° East 422 486 31,000 -660 Descending Indianapolis Center
11:05AM 36.7781 -85.0769 98° East 413 475 31,000  Level Indianapolis Center
11:06AM 36.7608 -84.9292 98° East 425 489 31,000 -360 Level Indianapolis Center
11:07AM 36.7439 -84.7844 98° East 423 487 30,300 -900 Descending Indianapolis Center
11:08AM 36.7258 -84.6367 99° East 429 494 29,200 -660 Descending Indianapolis Center
11:09AM 36.7083 -84.4836 98° East 438 504 29,000 -120 Descending Indianapolis Center
11:10AM 36.6886 -84.3336 99° East 438 504 29,000  Level Indianapolis Center
11:11AM 36.6717 -84.1842 98° East 436 502 29,000  Level Indianapolis Center
11:12AM 36.6486 -84.0106 99° East 436 502 29,000  Level Indianapolis Center
11:13AM 36.6306 -83.8633 99° East 432 497 29,000  Level Indianapolis Center
11:15AM 36.6142 -83.7167 98° East 429 494 29,000  Level Indianapolis Center
11:16AM 36.5944 -83.5686 99° East 433 498 29,000  Level Indianapolis Center
11:17AM 36.6006 -83.4208 87° East 440 506 29,000  Level Indianapolis Center
11:17AM 36.6172 -83.3172 79° East 423 487 29,000  Level Atlanta Center
11:18AM 36.6275 -83.2731 74° East 436 502 29,000  Level Indianapolis Center
11:19AM 36.6547 -83.1275 77° East 436 502 29,000  Level Indianapolis Center
11:19AM 36.6714 -83.0267 78° East 429 494 29,000  Level Atlanta Center
11:20AM 36.6994 -82.8814 76° East 429 494 29,000  Level Atlanta Center
11:21AM 36.7131 -82.8161 75° East 430 495 29,000  Level Indianapolis Center
11:22AM 36.7394 -82.6744 77° East 426 490 29,000  Level Indianapolis Center
11:23AM 36.7667 -82.5314 77° East 426 490 29,000  Level Indianapolis Center
11:23AM 36.7781 -82.4606 79° East 429 494 29,000  Level Atlanta Center
11:24AM 36.8053 -82.3200 76° East 424 488 29,000  Level Atlanta Center
11:25AM 36.8325 -82.1742 77° East 424 488 29,000  Level Atlanta Center
11:26AM 36.8572 -82.0333 78° East 424 488 29,000  Level Atlanta Center
11:27AM 36.8858 -81.8769 77° East 418 481 29,000  Level Atlanta Center
11:28AM 36.9103 -81.7336 78° East 413 475 29,000  Level Atlanta Center
11:29AM 36.9369 -81.5925 77° East 413 475 29,000 -420 Level Atlanta Center
11:30AM 36.9550 -81.4647 80° East 418 481 28,200 -960 Descending Atlanta Center
11:31AM 36.9831 -81.3078 77° East 413 475 27,100 -420 Descending Atlanta Center
11:33AM 37.0294 -81.0347 78° East 403 464 27,000 -60 Descending Washington Center
11:34AM 37.0572 -80.8831 77° East 403 464 27,000  Level Washington Center
11:35AM 37.0822 -80.7442 77° East 403 464 27,000  Level Washington Center
11:36AM 37.0794 -80.6086 91° East 403 464 27,000  Level Washington Center
11:37AM 37.0728 -80.4678 93° East 398 458 27,000 -300 Level Washington Center
11:38AM 37.0633 -80.3422 95° East 403 464 26,400 -1,260 Descending Washington Center
11:39AM 37.0561 -80.2036 94° East 408 470 24,500 -2,040 Descending Washington Center
11:40AM 37.0467 -80.0678 95° East 408 470 22,400 -1,800 Descending Washington Center
11:41AM 37.0033 -79.9406 113° Southeast 365 420 21,000 -720 Descending Washington Center
11:42AM 36.9658 -79.8239 112° Southeast 365 420 21,000  Level Washington Center
11:43AM 36.9239 -79.7100 115° Southeast 359 413 21,000  Level Washington Center
11:44AM 36.8881 -79.6042 113° Southeast 359 413 21,000  Level Washington Center
11:45AM 36.8458 -79.4928 115° Southeast 359 413 21,000 -780 Level Washington Center
11:46AM 36.8056 -79.3767 113° Southeast 359 413 19,500 -1,560 Descending Washington Center
11:47AM 36.7653 -79.2633 114° Southeast 364 419 17,900 -1,860 Descending Washington Center
11:48AM 36.7192 -79.1392 115° Southeast 353 406 15,800 -1,980 Descending Washington Center
11:49AM 36.6783 -79.0364 116° Southeast 353 406 14,000 -1,800 Descending Washington Center
11:50AM 36.5961 -78.9939 157° South 301 346 12,200 -1,860 Descending Washington Center
11:51AM 36.5525 -78.9817 167° South 298 343 11,200 -1,800 Descending Washington Center
11:51AM 36.5175 -78.9697 165° South 291 335 10,400 -1,320 Descending Washington Center
11:52AM 36.4781 -78.9603 169° South 269 310 9,900 -540 Descending Washington Center
11:52AM 36.4450 -78.9511 167° South 283 326 9,900 60 Level Washington Center
11:53AM 36.3972 -78.9364 166° South 254 292 10,000 180 Climbing Washington Center
11:53AM 36.3725 -78.9275 164° South 276 318 10,100  Climbing Washington Center
11:54AM 36.3289 -78.9178 170° South 265 305 10,000  Descending Washington Center
11:54AM 36.3064 -78.9092 163° South 270 311 10,100 -120 Climbing Washington Center
11:55AM 36.2586 -78.8994 171° South 270 311 9,900 -420 Descending Washington Center
11:55AM 36.2297 -78.8881 162° South 270 311 9,700 -1,380 Descending Washington Center
11:56AM 36.1822 -78.8681 161° South 271 312 8,400 -1,500 Descending Washington Center
11:56AM 36.1681 -78.8519 137° Southeast 275 316 8,200 -1,380 Descending Washington Center
11:57AM 36.1317 -78.8092 136° Southeast 235 270 7,000 -1,500 Descending Washington Center
11:57AM 36.1194 -78.7933 134° Southeast 247 284 6,700 -1,020 Descending Washington Center
11:58AM 36.0892 -78.7561 135° Southeast 202 232 6,000 -720 Descending Washington Center
11:58AM 36.0772 -78.7403 133° Southeast 230 265 6,000 -1,320 Level Washington Center
11:59AM 36.0428 -78.7003 137° Southeast 210 242 4,600 -1,740 Descending Washington Center
12:00PM 35.9850 -78.6725 159° South 214 246 2,700 -1,320 Descending Washington Center
12:01PM 35.9442 -78.7144 220° Southwest 193 222 1,900 -900 Descending Washington Center
12:02PM 35.9097 -78.7567 225° Southwest 141 162 900 -1,020 Descending Washington Center
12:04PM 35.8776 -78.7875 North  Level Estimated
12:11PM 35.8776 -78.7875 North  Level Estimated
12:12PM 35.8776 -78.7875 North  Level Estimated